createdAt,value
2022-08-22T00:00:19.055Z,20.00
2022-08-22T00:03:28.333Z,20.10
2022-08-22T00:15:55.405Z,20.60
2022-08-22T00:18:39.453Z,20.70
2022-08-22T00:21:24.115Z,21.00
2022-08-22T00:24:19.112Z,21.10
2022-08-22T00:27:02.339Z,21.10
2022-08-22T00:29:49.540Z,21.40
2022-08-22T00:39:34.484Z,21.60
2022-08-22T00:51:14.044Z,22.00
2022-08-22T00:54:06.806Z,22.10
2022-08-22T00:57:22.516Z,22.10
2022-08-22T01:00:15.673Z,22.20
2022-08-22T01:03:32.012Z,22.30
2022-08-22T01:06:29.235Z,22.30
2022-08-22T01:09:20.243Z,22.20
2022-08-22T01:12:27.122Z,22.30
2022-08-22T01:15:11.574Z,22.30
2022-08-22T01:18:09.343Z,22.20
2022-08-22T01:25:42.876Z,22.30
2022-08-22T01:28:49.036Z,22.40
2022-08-22T01:31:59.708Z,22.50
2022-08-22T01:35:09.873Z,22.70
2022-08-22T01:38:33.045Z,22.90
2022-08-22T01:41:59.779Z,22.70
2022-08-22T02:14:43.821Z,23.40
2022-08-22T02:17:34.953Z,23.50
2022-08-22T02:20:28.602Z,23.40
2022-08-22T02:23:15.311Z,23.60
2022-08-22T02:30:28.186Z,23.70
2022-08-22T02:33:12.614Z,23.80
2022-08-22T02:35:59.317Z,23.80
2022-08-22T02:38:44.404Z,23.80
2022-08-22T02:41:36.646Z,23.80
2022-08-22T02:44:26.929Z,23.90
2022-08-22T02:55:52.214Z,24.50
2022-08-22T02:58:39.709Z,23.60
2022-08-22T03:01:33.688Z,23.60
2022-08-22T03:04:54.498Z,23.60
2022-08-22T03:07:54.220Z,23.80
2022-08-22T03:10:52.905Z,23.70
2022-08-22T03:17:54.486Z,23.60
2022-08-22T03:24:53.920Z,23.70
2022-08-22T03:27:50.078Z,23.80
2022-08-22T03:30:45.896Z,23.80
2022-08-22T03:33:38.924Z,24.00
2022-08-22T03:36:34.036Z,24.00
2022-08-22T03:39:24.734Z,23.90
2022-08-22T03:47:13.735Z,24.00
2022-08-22T03:50:25.735Z,24.00
2022-08-22T03:53:37.755Z,24.00
2022-08-22T03:56:57.426Z,24.00
2022-08-22T04:00:07.465Z,24.10
2022-08-22T04:03:19.332Z,24.00
2022-08-22T04:10:56.889Z,23.90
2022-08-22T04:14:09.718Z,23.70
2022-08-22T04:17:15.462Z,23.70
2022-08-22T04:20:33.203Z,23.80
2022-08-22T04:23:33.116Z,23.80
2022-08-22T04:26:20.955Z,23.80
2022-08-22T04:29:07.863Z,23.80
2022-08-22T04:36:08.839Z,23.80
2022-08-22T04:38:49.498Z,23.70
2022-08-22T04:41:30.782Z,23.50
2022-08-22T04:44:12.168Z,23.40
2022-08-22T04:46:54.778Z,23.30
2022-08-22T04:49:38.103Z,23.10
2022-08-22T04:52:29.548Z,23.10
2022-08-22T04:55:16.432Z,23.00
2022-08-22T04:58:06.746Z,23.00
2022-08-22T05:00:54.050Z,22.90
2022-08-22T05:03:35.226Z,22.80
2022-08-22T05:06:22.242Z,22.70
2022-08-22T05:09:10.028Z,22.60
2022-08-22T05:11:52.898Z,22.50
2022-08-22T05:23:18.576Z,22.20
2022-08-22T05:26:04.528Z,22.10
2022-08-22T05:28:53.126Z,22.10
2022-08-22T05:35:53.430Z,22.00
2022-08-22T05:38:37.920Z,21.80
2022-08-22T05:45:39.198Z,21.70
2022-08-22T05:48:22.660Z,21.60
2022-08-22T05:51:06.189Z,21.60
2022-08-22T05:53:47.240Z,21.50
2022-08-22T05:56:38.352Z,21.50
2022-08-22T05:59:28.133Z,21.40
2022-08-22T06:02:13.416Z,21.40
2022-08-22T06:04:59.907Z,21.40
2022-08-22T06:07:45.083Z,21.40
2022-08-22T06:19:02.567Z,21.10
2022-08-22T06:21:43.811Z,21.00
2022-08-22T06:24:26.263Z,20.90
2022-08-22T06:27:19.514Z,20.90
2022-08-22T06:38:53.486Z,20.80
2022-08-22T06:41:33.841Z,20.70
2022-08-22T06:44:13.789Z,20.60
2022-08-22T06:46:55.763Z,20.60
2022-08-22T06:49:43.829Z,20.50
2022-08-22T06:52:31.356Z,20.50
2022-08-22T06:59:32.795Z,20.50
2022-08-22T07:02:15.543Z,20.40
2022-08-22T07:13:34.363Z,20.40
2022-08-22T07:16:15.745Z,20.40
2022-08-22T07:18:56.528Z,20.40
2022-08-22T07:21:37.796Z,20.20
2022-08-22T07:33:26.662Z,20.00
2022-08-22T07:36:05.954Z,20.00
2022-08-22T07:38:48.265Z,19.90
2022-08-22T07:41:29.224Z,19.80
2022-08-22T07:44:16.448Z,19.90
2022-08-22T07:47:01.533Z,19.80
2022-08-22T07:49:45.878Z,19.90
2022-08-22T07:52:28.686Z,19.80
2022-08-22T07:55:16.112Z,19.80
2022-08-22T07:57:58.861Z,19.80
2022-08-22T08:00:38.498Z,19.70
2022-08-22T08:03:16.991Z,19.70
2022-08-22T08:05:58.061Z,19.60
2022-08-22T08:08:44.151Z,19.60
2022-08-22T08:36:39.659Z,19.20
2022-08-22T09:28:28.249Z,18.50
2022-08-22T09:31:44.814Z,18.50
2022-08-22T09:34:34.701Z,18.50
2022-08-22T09:37:25.675Z,18.40
2022-08-22T09:40:13.406Z,18.40
2022-08-22T09:43:00.791Z,18.30
2022-08-22T09:45:58.018Z,18.30
2022-08-22T09:48:57.935Z,18.30
2022-08-22T09:51:46.281Z,18.20
2022-08-22T09:54:41.225Z,18.20
2022-08-22T09:57:40.099Z,18.20
2022-08-22T10:00:28.832Z,18.20
2022-08-22T10:03:20.071Z,18.10
2022-08-22T10:06:17.443Z,18.10
2022-08-22T10:09:16.940Z,18.10
2022-08-22T10:12:06.589Z,18.00
2022-08-22T10:15:42.410Z,18.00
2022-08-22T10:19:05.285Z,18.00
2022-08-22T10:22:10.241Z,18.10
2022-08-22T10:25:01.099Z,17.90
2022-08-22T10:27:56.768Z,17.90
2022-08-22T10:30:42.963Z,17.80
2022-08-22T10:33:31.511Z,17.90
2022-08-22T10:36:23.814Z,17.90
2022-08-22T10:39:11.654Z,17.90
2022-08-22T10:42:19.080Z,17.90
2022-08-22T10:45:23.625Z,17.90
2022-08-22T10:52:27.543Z,17.90
2022-08-22T10:55:20.339Z,17.80
2022-08-22T10:58:11.414Z,17.80
2022-08-22T11:05:44.015Z,17.70
2022-08-22T11:17:27.480Z,17.70
2022-08-22T11:20:26.356Z,17.70
2022-08-22T11:23:21.204Z,17.70
2022-08-22T11:26:07.708Z,17.70
2022-08-22T11:29:23.699Z,17.60
2022-08-22T11:40:38.423Z,17.60
2022-08-22T11:43:36.301Z,17.50
2022-08-22T11:54:54.796Z,17.50
2022-08-22T11:57:44.759Z,17.60
2022-08-22T12:00:45.822Z,17.60
2022-08-22T12:03:58.279Z,17.60
2022-08-22T12:07:06.762Z,17.70
2022-08-22T12:09:58.066Z,17.70
2022-08-22T12:13:04.844Z,17.70
2022-08-22T12:15:53.873Z,17.70
2022-08-22T12:18:46.968Z,17.70
2022-08-22T12:21:57.331Z,17.70
2022-08-22T12:24:50.761Z,17.70
2022-08-22T12:27:48.588Z,17.70
2022-08-22T12:30:40.400Z,17.70
2022-08-22T12:33:48.933Z,17.70
2022-08-22T12:36:39.596Z,17.70
2022-08-22T12:39:53.907Z,17.60
2022-08-22T12:43:02.796Z,17.60
2022-08-22T12:46:06.866Z,17.50
2022-08-22T12:49:28.735Z,17.50
2022-08-22T12:52:22.309Z,17.40
2022-08-22T12:55:31.858Z,17.40
2022-08-22T13:58:00.760Z,17.60
2022-08-22T14:01:12.394Z,17.60
2022-08-22T14:12:27.460Z,17.60
2022-08-22T14:15:12.735Z,17.60
2022-08-22T14:17:54.179Z,17.70
2022-08-22T14:23:16.281Z,17.70
2022-08-22T14:30:01.163Z,17.50
2022-08-22T14:38:35.112Z,17.50
2022-08-22T14:44:00.949Z,17.60
2022-08-22T21:23:13.159Z,17.20
2022-08-22T21:26:13.590Z,17.40
2022-08-22T21:29:06.851Z,17.60
2022-08-22T21:32:04.765Z,17.80
2022-08-22T21:34:48.665Z,18.10
2022-08-22T21:37:43.460Z,18.20
2022-08-22T21:49:05.684Z,18.90
2022-08-22T21:51:51.544Z,19.10
2022-08-22T21:54:47.466Z,19.20
2022-08-22T21:57:39.402Z,19.40
2022-08-22T22:00:49.889Z,19.40
2022-08-22T22:12:08.781Z,19.70
2022-08-22T22:23:26.156Z,19.90
2022-08-22T22:30:27.027Z,19.90
2022-08-22T22:37:23.906Z,19.80
2022-08-22T22:40:01.165Z,19.80
2022-08-22T22:42:45.027Z,19.80
2022-08-22T22:45:24.437Z,19.80
2022-08-22T22:48:02.263Z,19.80
2022-08-22T22:50:43.139Z,19.80
2022-08-22T22:53:21.503Z,19.70
2022-08-22T22:56:21.448Z,19.70
2022-08-22T22:59:13.005Z,19.60
2022-08-22T23:02:11.445Z,19.50
2022-08-22T23:04:52.445Z,19.50
2022-08-22T23:07:33.823Z,19.40
2022-08-22T23:10:12.246Z,19.40
2022-08-22T23:17:13.318Z,19.50
2022-08-22T23:28:17.588Z,19.30
2022-08-22T23:35:23.102Z,19.30
2022-08-22T23:42:24.443Z,19.80
2022-08-22T23:45:01.417Z,20.20
2022-08-22T23:52:01.054Z,20.60
